sensor_id;sensor_type;location;lat;lon;timestamp;temperature;humidity
19870;DHT22;10097;50.862;4.696;2024-01-16T00:01:21;2.10;99.90
19870;DHT22;10097;50.862;4.696;2024-01-16T00:03:46;2.20;99.90
19870;DHT22;10097;50.862;4.696;2024-01-16T00:06:12;2.20;99.90
19870;DHT22;10097;50.862;4.696;2024-01-16T00:08:38;2.10;99.90
19870;DHT22;10097;50.862;4.696;2024-01-16T00:11:03;2.10;99.90
19870;DHT22;10097;50.862;4.696;2024-01-16T00:13:29;2.10;99.90
19870;DHT22;10097;50.862;4.696;2024-01-16T00:15:55;2.10;99.90
19870;DHT22;10097;50.862;4.696;2024-01-16T00:18:22;2.20;99.90
19870;DHT22;10097;50.862;4.696;2024-01-16T00:20:48;2.10;99.90
19870;DHT22;10097;50.862;4.696;2024-01-16T00:23:14;2.10;99.90
19870;DHT22;10097;50.862;4.696;2024-01-16T00:25:39;2.20;99.90
19870;DHT22;10097;50.862;4.696;2024-01-16T00:28:05;2.20;99.90
19870;DHT22;10097;50.862;4.696;2024-01-16T00:30:31;2.20;99.90
19870;DHT22;10097;50.862;4.696;2024-01-16T00:32:57;2.10;99.90
19870;DHT22;10097;50.862;4.696;2024-01-16T00:35:23;2.10;99.90
19870;DHT22;10097;50.862;4.696;2024-01-16T00:37:49;2.00;99.90
19870;DHT22;10097;50.862;4.696;2024-01-16T00:40:14;2.10;99.90
19870;DHT22;10097;50.862;4.696;2024-01-16T00:42:40;2.10;99.90
19870;DHT22;10097;50.862;4.696;2024-01-16T00:45:06;2.10;99.90
19870;DHT22;10097;50.862;4.696;2024-01-16T00:47:46;2.00;99.90
19870;DHT22;10097;50.862;4.696;2024-01-16T00:50:12;2.00;99.90
19870;DHT22;10097;50.862;4.696;2024-01-16T00:52:37;1.90;99.90
19870;DHT22;10097;50.862;4.696;2024-01-16T00:55:03;1.90;99.90
19870;DHT22;10097;50.862;4.696;2024-01-16T00:57:29;1.90;99.90
19870;DHT22;10097;50.862;4.696;2024-01-16T00:59:55;1.90;99.90
19870;DHT22;10097;50.862;4.696;2024-01-16T01:02:21;1.90;99.90
19870;DHT22;10097;50.862;4.696;2024-01-16T01:04:47;1.90;99.90
19870;DHT22;10097;50.862;4.696;2024-01-16T01:07:16;1.90;99.90
19870;DHT22;10097;50.862;4.696;2024-01-16T01:09:42;1.80;99.90
19870;DHT22;10097;50.862;4.696;2024-01-16T01:12:07;1.90;99.90
19870;DHT22;10097;50.862;4.696;2024-01-16T01:14:33;2.00;99.90
19870;DHT22;10097;50.862;4.696;2024-01-16T01:16:59;2.00;99.90
19870;DHT22;10097;50.862;4.696;2024-01-16T01:19:25;2.00;99.90
19870;DHT22;10097;50.862;4.696;2024-01-16T01:21:50;2.10;99.90
19870;DHT22;10097;50.862;4.696;2024-01-16T01:24:16;2.20;99.90
19870;DHT22;10097;50.862;4.696;2024-01-16T01:26:45;2.20;99.90
19870;DHT22;10097;50.862;4.696;2024-01-16T01:29:10;2.20;99.90
19870;DHT22;10097;50.862;4.696;2024-01-16T01:31:36;2.30;99.90
19870;DHT22;10097;50.862;4.696;2024-01-16T01:34:02;2.30;99.90
19870;DHT22;10097;50.862;4.696;2024-01-16T01:36:28;2.30;99.90
19870;DHT22;10097;50.862;4.696;2024-01-16T01:38:53;2.40;99.90
19870;DHT22;10097;50.862;4.696;2024-01-16T01:41:19;2.40;99.90
19870;DHT22;10097;50.862;4.696;2024-01-16T01:43:45;2.40;99.90
19870;DHT22;10097;50.862;4.696;2024-01-16T01:46:14;2.40;99.90
19870;DHT22;10097;50.862;4.696;2024-01-16T01:48:42;2.40;99.90
19870;DHT22;10097;50.862;4.696;2024-01-16T01:51:08;2.40;99.90
19870;DHT22;10097;50.862;4.696;2024-01-16T01:53:36;2.40;99.90
19870;DHT22;10097;50.862;4.696;2024-01-16T01:56:08;2.40;99.90
19870;DHT22;10097;50.862;4.696;2024-01-16T01:58:36;2.30;99.90
19870;DHT22;10097;50.862;4.696;2024-01-16T02:01:04;2.30;99.90
19870;DHT22;10097;50.862;4.696;2024-01-16T02:03:35;2.30;99.90
19870;DHT22;10097;50.862;4.696;2024-01-16T02:06:01;2.20;99.90
19870;DHT22;10097;50.862;4.696;2024-01-16T02:08:27;2.20;99.90
19870;DHT22;10097;50.862;4.696;2024-01-16T02:10:53;2.10;99.90
19870;DHT22;10097;50.862;4.696;2024-01-16T02:13:19;2.00;99.90
19870;DHT22;10097;50.862;4.696;2024-01-16T02:15:49;2.10;99.90
19870;DHT22;10097;50.862;4.696;2024-01-16T02:18:14;2.10;99.90
19870;DHT22;10097;50.862;4.696;2024-01-16T02:20:42;2.00;99.90
19870;DHT22;10097;50.862;4.696;2024-01-16T02:23:07;2.10;99.90
19870;DHT22;10097;50.862;4.696;2024-01-16T02:25:34;2.00;99.90
19870;DHT22;10097;50.862;4.696;2024-01-16T02:28:01;2.00;99.90
19870;DHT22;10097;50.862;4.696;2024-01-16T02:30:28;2.00;99.90
19870;DHT22;10097;50.862;4.696;2024-01-16T02:32:54;2.10;99.90
19870;DHT22;10097;50.862;4.696;2024-01-16T02:35:19;2.10;99.90
19870;DHT22;10097;50.862;4.696;2024-01-16T02:37:45;2.10;99.90
19870;DHT22;10097;50.862;4.696;2024-01-16T02:40:11;2.10;99.90
19870;DHT22;10097;50.862;4.696;2024-01-16T02:42:36;2.10;99.90
19870;DHT22;10097;50.862;4.696;2024-01-16T02:45:04;2.10;99.90
19870;DHT22;10097;50.862;4.696;2024-01-16T02:47:30;2.10;99.90
19870;DHT22;10097;50.862;4.696;2024-01-16T02:49:55;2.10;99.90
19870;DHT22;10097;50.862;4.696;2024-01-16T02:52:22;1.90;99.90
19870;DHT22;10097;50.862;4.696;2024-01-16T02:54:48;1.90;99.90
19870;DHT22;10097;50.862;4.696;2024-01-16T02:57:13;1.80;99.90
19870;DHT22;10097;50.862;4.696;2024-01-16T02:59:39;1.80;99.90
19870;DHT22;10097;50.862;4.696;2024-01-16T03:02:05;1.90;99.90
19870;DHT22;10097;50.862;4.696;2024-01-16T03:04:30;1.90;99.90
19870;DHT22;10097;50.862;4.696;2024-01-16T03:06:56;1.80;99.90
19870;DHT22;10097;50.862;4.696;2024-01-16T03:09:21;1.80;99.90
19870;DHT22;10097;50.862;4.696;2024-01-16T03:11:47;1.80;99.90
19870;DHT22;10097;50.862;4.696;2024-01-16T03:14:13;1.80;99.90
19870;DHT22;10097;50.862;4.696;2024-01-16T03:16:39;1.80;99.90
19870;DHT22;10097;50.862;4.696;2024-01-16T03:19:05;1.80;99.90
19870;DHT22;10097;50.862;4.696;2024-01-16T03:21:31;1.80;99.90
19870;DHT22;10097;50.862;4.696;2024-01-16T03:23:57;1.80;99.90
19870;DHT22;10097;50.862;4.696;2024-01-16T03:26:23;1.80;99.90
19870;DHT22;10097;50.862;4.696;2024-01-16T03:28:49;1.80;99.90
19870;DHT22;10097;50.862;4.696;2024-01-16T03:31:14;1.80;99.90
19870;DHT22;10097;50.862;4.696;2024-01-16T03:33:40;1.80;99.90
19870;DHT22;10097;50.862;4.696;2024-01-16T03:36:08;1.80;99.90
19870;DHT22;10097;50.862;4.696;2024-01-16T03:38:35;1.80;99.90
19870;DHT22;10097;50.862;4.696;2024-01-16T03:41:02;1.80;99.90
19870;DHT22;10097;50.862;4.696;2024-01-16T03:43:29;1.90;99.90
19870;DHT22;10097;50.862;4.696;2024-01-16T03:45:57;1.80;99.90
19870;DHT22;10097;50.862;4.696;2024-01-16T03:48:23;1.70;99.90
19870;DHT22;10097;50.862;4.696;2024-01-16T03:50:48;1.70;99.90
19870;DHT22;10097;50.862;4.696;2024-01-16T03:53:14;1.80;99.90
19870;DHT22;10097;50.862;4.696;2024-01-16T03:55:40;1.80;99.90
19870;DHT22;10097;50.862;4.696;2024-01-16T03:58:05;1.60;99.90
19870;DHT22;10097;50.862;4.696;2024-01-16T04:00:31;1.70;99.90
19870;DHT22;10097;50.862;4.696;2024-01-16T04:02:57;1.60;99.90
19870;DHT22;10097;50.862;4.696;2024-01-16T04:05:23;1.50;99.90
19870;DHT22;10097;50.862;4.696;2024-01-16T04:07:48;1.70;99.90
19870;DHT22;10097;50.862;4.696;2024-01-16T04:10:14;1.60;99.90
19870;DHT22;10097;50.862;4.696;2024-01-16T04:12:40;1.60;99.90
19870;DHT22;10097;50.862;4.696;2024-01-16T04:15:06;1.60;99.90
19870;DHT22;10097;50.862;4.696;2024-01-16T04:17:31;1.60;99.90
19870;DHT22;10097;50.862;4.696;2024-01-16T04:19:57;1.70;99.90
19870;DHT22;10097;50.862;4.696;2024-01-16T04:22:23;1.60;99.90
19870;DHT22;10097;50.862;4.696;2024-01-16T04:24:49;1.50;99.90
19870;DHT22;10097;50.862;4.696;2024-01-16T04:27:14;1.50;99.90
19870;DHT22;10097;50.862;4.696;2024-01-16T04:29:40;1.60;99.90
19870;DHT22;10097;50.862;4.696;2024-01-16T04:32:06;1.60;99.90
19870;DHT22;10097;50.862;4.696;2024-01-16T04:34:31;1.50;99.90
19870;DHT22;10097;50.862;4.696;2024-01-16T04:36:57;1.40;99.90
19870;DHT22;10097;50.862;4.696;2024-01-16T04:39:22;1.40;99.90
19870;DHT22;10097;50.862;4.696;2024-01-16T04:41:49;1.40;99.90
19870;DHT22;10097;50.862;4.696;2024-01-16T04:44:15;1.30;99.90
19870;DHT22;10097;50.862;4.696;2024-01-16T04:46:41;1.30;99.90
19870;DHT22;10097;50.862;4.696;2024-01-16T04:49:06;1.40;99.90
19870;DHT22;10097;50.862;4.696;2024-01-16T04:51:32;1.30;99.90
19870;DHT22;10097;50.862;4.696;2024-01-16T04:53:57;1.30;99.90
19870;DHT22;10097;50.862;4.696;2024-01-16T04:56:23;1.30;99.90
19870;DHT22;10097;50.862;4.696;2024-01-16T04:58:49;1.20;99.90
19870;DHT22;10097;50.862;4.696;2024-01-16T05:01:14;1.30;99.90
19870;DHT22;10097;50.862;4.696;2024-01-16T05:03:40;1.30;99.90
19870;DHT22;10097;50.862;4.696;2024-01-16T05:06:12;1.20;99.90
19870;DHT22;10097;50.862;4.696;2024-01-16T05:08:39;1.10;99.90
19870;DHT22;10097;50.862;4.696;2024-01-16T05:11:04;1.00;99.90
19870;DHT22;10097;50.862;4.696;2024-01-16T05:13:30;0.90;99.90
19870;DHT22;10097;50.862;4.696;2024-01-16T05:15:56;1.00;99.90
19870;DHT22;10097;50.862;4.696;2024-01-16T05:18:21;0.90;99.90
19870;DHT22;10097;50.862;4.696;2024-01-16T05:20:47;0.90;99.90
19870;DHT22;10097;50.862;4.696;2024-01-16T05:23:12;0.80;99.90
19870;DHT22;10097;50.862;4.696;2024-01-16T05:25:38;0.70;99.90
19870;DHT22;10097;50.862;4.696;2024-01-16T05:28:04;0.80;99.90
19870;DHT22;10097;50.862;4.696;2024-01-16T05:30:30;0.80;99.90
19870;DHT22;10097;50.862;4.696;2024-01-16T05:32:56;0.80;99.90
19870;DHT22;10097;50.862;4.696;2024-01-16T05:35:29;0.70;99.90
19870;DHT22;10097;50.862;4.696;2024-01-16T05:37:55;0.70;99.90
19870;DHT22;10097;50.862;4.696;2024-01-16T05:40:22;0.70;99.90
19870;DHT22;10097;50.862;4.696;2024-01-16T05:42:49;0.60;99.90
19870;DHT22;10097;50.862;4.696;2024-01-16T05:45:15;0.60;99.90
19870;DHT22;10097;50.862;4.696;2024-01-16T05:47:40;0.50;99.90
19870;DHT22;10097;50.862;4.696;2024-01-16T05:50:07;0.50;99.90
19870;DHT22;10097;50.862;4.696;2024-01-16T05:52:33;0.50;99.90
19870;DHT22;10097;50.862;4.696;2024-01-16T05:54:58;0.50;99.90
19870;DHT22;10097;50.862;4.696;2024-01-16T05:57:25;0.40;99.90
19870;DHT22;10097;50.862;4.696;2024-01-16T05:59:51;0.40;99.90
19870;DHT22;10097;50.862;4.696;2024-01-16T06:02:17;0.40;99.90
19870;DHT22;10097;50.862;4.696;2024-01-16T06:04:42;0.40;99.90
19870;DHT22;10097;50.862;4.696;2024-01-16T06:07:08;0.40;99.90
19870;DHT22;10097;50.862;4.696;2024-01-16T06:09:38;0.30;99.90
19870;DHT22;10097;50.862;4.696;2024-01-16T06:12:06;0.40;99.90
19870;DHT22;10097;50.862;4.696;2024-01-16T06:14:32;0.30;99.90
19870;DHT22;10097;50.862;4.696;2024-01-16T06:16:58;0.30;99.90
19870;DHT22;10097;50.862;4.696;2024-01-16T06:19:24;0.30;99.90
19870;DHT22;10097;50.862;4.696;2024-01-16T06:21:49;0.40;99.90
19870;DHT22;10097;50.862;4.696;2024-01-16T06:24:15;0.40;99.90
19870;DHT22;10097;50.862;4.696;2024-01-16T06:26:41;0.40;99.90
19870;DHT22;10097;50.862;4.696;2024-01-16T06:29:07;0.40;99.90
19870;DHT22;10097;50.862;4.696;2024-01-16T06:31:33;0.50;99.90
19870;DHT22;10097;50.862;4.696;2024-01-16T06:33:59;0.40;99.90
19870;DHT22;10097;50.862;4.696;2024-01-16T06:36:25;0.40;99.90
19870;DHT22;10097;50.862;4.696;2024-01-16T06:38:50;0.30;99.90
19870;DHT22;10097;50.862;4.696;2024-01-16T06:41:16;0.30;99.90
19870;DHT22;10097;50.862;4.696;2024-01-16T06:43:42;0.40;99.90
19870;DHT22;10097;50.862;4.696;2024-01-16T06:46:08;0.50;99.90
19870;DHT22;10097;50.862;4.696;2024-01-16T06:48:35;0.50;99.90
19870;DHT22;10097;50.862;4.696;2024-01-16T06:51:02;0.60;99.90
19870;DHT22;10097;50.862;4.696;2024-01-16T06:53:28;0.60;99.90
19870;DHT22;10097;50.862;4.696;2024-01-16T06:55:53;0.50;99.90
19870;DHT22;10097;50.862;4.696;2024-01-16T06:58:19;0.50;99.90
19870;DHT22;10097;50.862;4.696;2024-01-16T07:00:46;0.40;99.90
19870;DHT22;10097;50.862;4.696;2024-01-16T07:03:12;0.40;99.90
19870;DHT22;10097;50.862;4.696;2024-01-16T07:05:38;0.50;99.90
19870;DHT22;10097;50.862;4.696;2024-01-16T07:08:06;0.50;99.90
19870;DHT22;10097;50.862;4.696;2024-01-16T07:10:32;0.60;99.90
19870;DHT22;10097;50.862;4.696;2024-01-16T07:12:57;0.60;99.90
19870;DHT22;10097;50.862;4.696;2024-01-16T07:15:23;0.50;99.90
19870;DHT22;10097;50.862;4.696;2024-01-16T07:17:49;0.50;99.90
19870;DHT22;10097;50.862;4.696;2024-01-16T07:20:15;0.40;99.90
19870;DHT22;10097;50.862;4.696;2024-01-16T07:22:40;0.40;99.90
19870;DHT22;10097;50.862;4.696;2024-01-16T07:25:07;0.30;99.90
19870;DHT22;10097;50.862;4.696;2024-01-16T07:27:33;0.40;99.90
19870;DHT22;10097;50.862;4.696;2024-01-16T07:29:58;0.40;99.90
19870;DHT22;10097;50.862;4.696;2024-01-16T07:32:24;0.50;99.90
19870;DHT22;10097;50.862;4.696;2024-01-16T07:34:50;0.50;99.90
19870;DHT22;10097;50.862;4.696;2024-01-16T07:37:16;0.50;99.90
19870;DHT22;10097;50.862;4.696;2024-01-16T07:39:43;0.50;99.90
19870;DHT22;10097;50.862;4.696;2024-01-16T07:42:08;0.60;99.90
19870;DHT22;10097;50.862;4.696;2024-01-16T07:44:34;0.70;99.90
19870;DHT22;10097;50.862;4.696;2024-01-16T07:47:00;0.70;99.90
19870;DHT22;10097;50.862;4.696;2024-01-16T07:49:25;0.70;99.90
19870;DHT22;10097;50.862;4.696;2024-01-16T07:51:52;0.70;99.90
19870;DHT22;10097;50.862;4.696;2024-01-16T07:54:17;0.70;99.90
19870;DHT22;10097;50.862;4.696;2024-01-16T07:56:43;0.70;99.90
19870;DHT22;10097;50.862;4.696;2024-01-16T07:59:08;0.80;99.90
19870;DHT22;10097;50.862;4.696;2024-01-16T08:01:34;0.90;99.90
19870;DHT22;10097;50.862;4.696;2024-01-16T08:04:00;0.90;99.90
19870;DHT22;10097;50.862;4.696;2024-01-16T08:06:26;0.90;99.90
19870;DHT22;10097;50.862;4.696;2024-01-16T08:08:52;0.80;99.90
19870;DHT22;10097;50.862;4.696;2024-01-16T08:11:18;0.70;99.90
19870;DHT22;10097;50.862;4.696;2024-01-16T08:13:44;0.70;99.90
19870;DHT22;10097;50.862;4.696;2024-01-16T08:16:10;0.80;99.90
19870;DHT22;10097;50.862;4.696;2024-01-16T08:18:36;0.80;99.90
19870;DHT22;10097;50.862;4.696;2024-01-16T08:21:02;0.70;99.90
19870;DHT22;10097;50.862;4.696;2024-01-16T08:23:28;0.70;99.90
19870;DHT22;10097;50.862;4.696;2024-01-16T08:25:53;0.70;99.90
19870;DHT22;10097;50.862;4.696;2024-01-16T08:28:19;0.80;99.90
19870;DHT22;10097;50.862;4.696;2024-01-16T08:30:44;0.90;99.90
19870;DHT22;10097;50.862;4.696;2024-01-16T08:33:11;0.90;99.90
19870;DHT22;10097;50.862;4.696;2024-01-16T08:35:37;0.80;99.90
19870;DHT22;10097;50.862;4.696;2024-01-16T08:38:03;1.00;99.90
19870;DHT22;10097;50.862;4.696;2024-01-16T08:40:30;1.00;99.90
19870;DHT22;10097;50.862;4.696;2024-01-16T08:42:56;1.00;99.90
19870;DHT22;10097;50.862;4.696;2024-01-16T08:45:22;1.10;99.90
19870;DHT22;10097;50.862;4.696;2024-01-16T08:47:48;1.10;99.90
19870;DHT22;10097;50.862;4.696;2024-01-16T08:50:15;1.20;99.90
19870;DHT22;10097;50.862;4.696;2024-01-16T08:52:41;1.20;99.90
19870;DHT22;10097;50.862;4.696;2024-01-16T08:55:07;1.30;99.90
19870;DHT22;10097;50.862;4.696;2024-01-16T08:57:34;1.50;99.90
19870;DHT22;10097;50.862;4.696;2024-01-16T09:00:00;1.70;99.90
19870;DHT22;10097;50.862;4.696;2024-01-16T09:02:26;1.70;99.90
19870;DHT22;10097;50.862;4.696;2024-01-16T09:04:55;1.70;99.90
19870;DHT22;10097;50.862;4.696;2024-01-16T09:07:20;1.60;99.90
19870;DHT22;10097;50.862;4.696;2024-01-16T09:09:46;1.70;99.90
19870;DHT22;10097;50.862;4.696;2024-01-16T09:12:12;1.70;99.90
19870;DHT22;10097;50.862;4.696;2024-01-16T09:14:37;1.70;99.90
19870;DHT22;10097;50.862;4.696;2024-01-16T09:17:03;1.90;99.90
19870;DHT22;10097;50.862;4.696;2024-01-16T09:19:29;2.00;99.90
19870;DHT22;10097;50.862;4.696;2024-01-16T09:21:55;2.10;99.90
19870;DHT22;10097;50.862;4.696;2024-01-16T09:24:21;2.10;99.90
19870;DHT22;10097;50.862;4.696;2024-01-16T09:26:47;2.00;99.90
19870;DHT22;10097;50.862;4.696;2024-01-16T09:29:12;2.10;99.90
19870;DHT22;10097;50.862;4.696;2024-01-16T09:31:40;2.10;99.90
19870;DHT22;10097;50.862;4.696;2024-01-16T09:34:06;2.20;99.90
19870;DHT22;10097;50.862;4.696;2024-01-16T09:36:32;2.10;99.90
19870;DHT22;10097;50.862;4.696;2024-01-16T09:39:01;1.80;99.90
19870;DHT22;10097;50.862;4.696;2024-01-16T09:41:27;1.60;99.90
19870;DHT22;10097;50.862;4.696;2024-01-16T09:43:53;1.70;99.90
19870;DHT22;10097;50.862;4.696;2024-01-16T09:46:20;1.60;99.90
19870;DHT22;10097;50.862;4.696;2024-01-16T09:48:48;1.50;99.90
19870;DHT22;10097;50.862;4.696;2024-01-16T09:51:16;1.50;99.90
19870;DHT22;10097;50.862;4.696;2024-01-16T09:53:42;1.60;99.90
19870;DHT22;10097;50.862;4.696;2024-01-16T09:56:14;1.60;99.90
19870;DHT22;10097;50.862;4.696;2024-01-16T09:58:43;1.60;99.90
19870;DHT22;10097;50.862;4.696;2024-01-16T10:01:11;1.60;99.90
19870;DHT22;10097;50.862;4.696;2024-01-16T10:03:37;1.50;99.90
19870;DHT22;10097;50.862;4.696;2024-01-16T10:06:07;1.50;99.90
19870;DHT22;10097;50.862;4.696;2024-01-16T10:08:33;1.50;99.90
19870;DHT22;10097;50.862;4.696;2024-01-16T10:10:59;1.60;99.90
19870;DHT22;10097;50.862;4.696;2024-01-16T10:13:26;1.70;99.90
19870;DHT22;10097;50.862;4.696;2024-01-16T10:15:52;1.70;99.90
19870;DHT22;10097;50.862;4.696;2024-01-16T10:18:27;1.70;99.90
19870;DHT22;10097;50.862;4.696;2024-01-16T10:20:53;1.80;99.90
19870;DHT22;10097;50.862;4.696;2024-01-16T10:23:30;1.90;99.90
19870;DHT22;10097;50.862;4.696;2024-01-16T10:26:25;2.00;99.90
19870;DHT22;10097;50.862;4.696;2024-01-16T10:28:50;2.00;99.90
19870;DHT22;10097;50.862;4.696;2024-01-16T10:31:17;2.00;99.90
19870;DHT22;10097;50.862;4.696;2024-01-16T10:33:42;2.00;99.90
19870;DHT22;10097;50.862;4.696;2024-01-16T10:36:17;2.00;99.90
19870;DHT22;10097;50.862;4.696;2024-01-16T10:38:46;2.00;99.90
19870;DHT22;10097;50.862;4.696;2024-01-16T10:41:12;2.00;99.90
19870;DHT22;10097;50.862;4.696;2024-01-16T10:43:38;2.10;99.90
19870;DHT22;10097;50.862;4.696;2024-01-16T10:46:12;2.10;99.90
19870;DHT22;10097;50.862;4.696;2024-01-16T10:48:39;2.00;99.90
19870;DHT22;10097;50.862;4.696;2024-01-16T10:51:06;2.00;99.90
19870;DHT22;10097;50.862;4.696;2024-01-16T10:53:34;2.10;99.90
19870;DHT22;10097;50.862;4.696;2024-01-16T10:56:01;2.10;99.90
19870;DHT22;10097;50.862;4.696;2024-01-16T10:58:29;2.20;99.90
19870;DHT22;10097;50.862;4.696;2024-01-16T11:01:01;2.30;99.90
19870;DHT22;10097;50.862;4.696;2024-01-16T11:03:46;2.50;99.90
19870;DHT22;10097;50.862;4.696;2024-01-16T11:06:17;2.60;99.90
19870;DHT22;10097;50.862;4.696;2024-01-16T11:08:50;2.50;99.90
19870;DHT22;10097;50.862;4.696;2024-01-16T11:11:17;2.60;99.90
19870;DHT22;10097;50.862;4.696;2024-01-16T11:13:42;2.70;99.90
19870;DHT22;10097;50.862;4.696;2024-01-16T11:16:13;2.70;99.90
19870;DHT22;10097;50.862;4.696;2024-01-16T11:18:39;2.80;99.90
19870;DHT22;10097;50.862;4.696;2024-01-16T11:21:08;3.00;99.90
19870;DHT22;10097;50.862;4.696;2024-01-16T11:23:35;2.90;99.90
19870;DHT22;10097;50.862;4.696;2024-01-16T11:26:40;2.90;99.90
19870;DHT22;10097;50.862;4.696;2024-01-16T11:31:56;3.00;99.90
19870;DHT22;10097;50.862;4.696;2024-01-16T11:37:13;3.10;99.90
19870;DHT22;10097;50.862;4.696;2024-01-16T11:39:39;3.20;99.90
19870;DHT22;10097;50.862;4.696;2024-01-16T11:42:08;3.30;99.90
19870;DHT22;10097;50.862;4.696;2024-01-16T11:44:40;3.30;99.90
19870;DHT22;10097;50.862;4.696;2024-01-16T11:47:07;3.30;99.90
19870;DHT22;10097;50.862;4.696;2024-01-16T11:49:35;3.40;99.90
19870;DHT22;10097;50.862;4.696;2024-01-16T11:52:00;3.60;99.90
19870;DHT22;10097;50.862;4.696;2024-01-16T11:54:26;3.50;99.90
19870;DHT22;10097;50.862;4.696;2024-01-16T11:59:58;3.40;99.90
19870;DHT22;10097;50.862;4.696;2024-01-16T12:02:44;3.40;99.90
19870;DHT22;10097;50.862;4.696;2024-01-16T12:05:12;3.40;99.90
19870;DHT22;10097;50.862;4.696;2024-01-16T12:07:48;3.50;99.90
19870;DHT22;10097;50.862;4.696;2024-01-16T12:10:16;3.60;99.90
19870;DHT22;10097;50.862;4.696;2024-01-16T12:12:42;3.60;99.90
19870;DHT22;10097;50.862;4.696;2024-01-16T12:15:20;3.80;99.90
19870;DHT22;10097;50.862;4.696;2024-01-16T12:17:56;3.80;99.90
19870;DHT22;10097;50.862;4.696;2024-01-16T12:20:23;3.90;99.90
19870;DHT22;10097;50.862;4.696;2024-01-16T12:23:05;4.10;99.90
19870;DHT22;10097;50.862;4.696;2024-01-16T12:25:33;4.20;99.90
19870;DHT22;10097;50.862;4.696;2024-01-16T12:30:33;4.20;99.90
19870;DHT22;10097;50.862;4.696;2024-01-16T12:33:09;4.30;99.90
19870;DHT22;10097;50.862;4.696;2024-01-16T12:35:39;4.40;99.90
19870;DHT22;10097;50.862;4.696;2024-01-16T12:38:09;4.40;99.90
19870;DHT22;10097;50.862;4.696;2024-01-16T12:40:36;4.50;99.90
19870;DHT22;10097;50.862;4.696;2024-01-16T12:43:06;4.80;99.90
19870;DHT22;10097;50.862;4.696;2024-01-16T12:45:32;4.70;99.90
19870;DHT22;10097;50.862;4.696;2024-01-16T12:48:00;4.60;99.90
19870;DHT22;10097;50.862;4.696;2024-01-16T12:50:27;4.70;99.90
19870;DHT22;10097;50.862;4.696;2024-01-16T12:55:39;4.80;99.90
19870;DHT22;10097;50.862;4.696;2024-01-16T13:00:51;4.70;99.90
19870;DHT22;10097;50.862;4.696;2024-01-16T13:03:21;4.60;99.90
19870;DHT22;10097;50.862;4.696;2024-01-16T13:05:58;4.70;99.90
19870;DHT22;10097;50.862;4.696;2024-01-16T13:08:25;4.70;99.90
19870;DHT22;10097;50.862;4.696;2024-01-16T13:11:04;4.80;99.90
19870;DHT22;10097;50.862;4.696;2024-01-16T13:13:30;4.80;99.90
19870;DHT22;10097;50.862;4.696;2024-01-16T13:15:56;4.80;99.90
19870;DHT22;10097;50.862;4.696;2024-01-16T13:18:27;5.00;99.90
19870;DHT22;10097;50.862;4.696;2024-01-16T13:20:55;5.00;99.90
19870;DHT22;10097;50.862;4.696;2024-01-16T13:23:22;5.30;99.90
19870;DHT22;10097;50.862;4.696;2024-01-16T13:25:49;5.40;99.90
19870;DHT22;10097;50.862;4.696;2024-01-16T13:28:16;5.50;99.90
19870;DHT22;10097;50.862;4.696;2024-01-16T13:30:43;5.30;99.90
19870;DHT22;10097;50.862;4.696;2024-01-16T13:33:09;5.50;99.90
19870;DHT22;10097;50.862;4.696;2024-01-16T13:35:37;5.60;99.90
19870;DHT22;10097;50.862;4.696;2024-01-16T13:38:04;5.40;99.90
19870;DHT22;10097;50.862;4.696;2024-01-16T13:40:30;5.20;99.90
19870;DHT22;10097;50.862;4.696;2024-01-16T13:42:56;5.10;99.90
19870;DHT22;10097;50.862;4.696;2024-01-16T13:45:22;4.90;99.90
19870;DHT22;10097;50.862;4.696;2024-01-16T13:47:48;4.80;99.90
19870;DHT22;10097;50.862;4.696;2024-01-16T13:50:14;4.80;99.90
19870;DHT22;10097;50.862;4.696;2024-01-16T13:52:40;4.70;99.90
19870;DHT22;10097;50.862;4.696;2024-01-16T13:55:09;4.90;99.90
19870;DHT22;10097;50.862;4.696;2024-01-16T13:57:36;5.00;99.90
19870;DHT22;10097;50.862;4.696;2024-01-16T14:00:03;5.20;99.90
19870;DHT22;10097;50.862;4.696;2024-01-16T14:02:29;5.40;99.90
19870;DHT22;10097;50.862;4.696;2024-01-16T14:04:55;5.40;99.90
19870;DHT22;10097;50.862;4.696;2024-01-16T14:07:21;5.50;99.90
19870;DHT22;10097;50.862;4.696;2024-01-16T14:09:47;5.60;99.90
19870;DHT22;10097;50.862;4.696;2024-01-16T14:12:13;5.80;99.90
19870;DHT22;10097;50.862;4.696;2024-01-16T14:14:40;5.80;99.90
19870;DHT22;10097;50.862;4.696;2024-01-16T14:17:06;5.90;99.90
19870;DHT22;10097;50.862;4.696;2024-01-16T14:19:34;6.10;99.90
19870;DHT22;10097;50.862;4.696;2024-01-16T14:22:00;6.20;99.90
19870;DHT22;10097;50.862;4.696;2024-01-16T14:24:26;6.10;99.90
19870;DHT22;10097;50.862;4.696;2024-01-16T14:26:52;5.80;99.90
19870;DHT22;10097;50.862;4.696;2024-01-16T14:29:17;5.60;99.90
19870;DHT22;10097;50.862;4.696;2024-01-16T14:31:44;5.50;99.90
19870;DHT22;10097;50.862;4.696;2024-01-16T14:34:14;5.40;99.90
19870;DHT22;10097;50.862;4.696;2024-01-16T14:36:40;5.20;99.90
19870;DHT22;10097;50.862;4.696;2024-01-16T14:39:06;5.20;99.90
19870;DHT22;10097;50.862;4.696;2024-01-16T14:41:35;5.00;99.90
19870;DHT22;10097;50.862;4.696;2024-01-16T14:44:01;4.90;99.90
19870;DHT22;10097;50.862;4.696;2024-01-16T14:46:26;5.00;99.90
19870;DHT22;10097;50.862;4.696;2024-01-16T14:48:52;4.90;99.90
19870;DHT22;10097;50.862;4.696;2024-01-16T14:51:18;4.70;99.90
19870;DHT22;10097;50.862;4.696;2024-01-16T14:53:43;4.60;99.90
19870;DHT22;10097;50.862;4.696;2024-01-16T14:56:10;4.60;99.90
19870;DHT22;10097;50.862;4.696;2024-01-16T14:58:38;4.60;99.90
19870;DHT22;10097;50.862;4.696;2024-01-16T15:01:04;4.70;99.90
19870;DHT22;10097;50.862;4.696;2024-01-16T15:03:31;4.60;99.90
19870;DHT22;10097;50.862;4.696;2024-01-16T15:05:56;4.60;99.90
19870;DHT22;10097;50.862;4.696;2024-01-16T15:08:22;4.60;99.90
19870;DHT22;10097;50.862;4.696;2024-01-16T15:10:48;4.60;99.90
19870;DHT22;10097;50.862;4.696;2024-01-16T15:13:14;4.70;99.90
19870;DHT22;10097;50.862;4.696;2024-01-16T15:15:39;4.70;99.90
19870;DHT22;10097;50.862;4.696;2024-01-16T15:18:05;4.70;99.90
19870;DHT22;10097;50.862;4.696;2024-01-16T15:20:31;4.50;99.90
19870;DHT22;10097;50.862;4.696;2024-01-16T15:22:56;4.40;99.90
19870;DHT22;10097;50.862;4.696;2024-01-16T15:25:22;4.20;99.90
19870;DHT22;10097;50.862;4.696;2024-01-16T15:27:51;4.20;99.90
19870;DHT22;10097;50.862;4.696;2024-01-16T15:30:21;4.00;99.90
19870;DHT22;10097;50.862;4.696;2024-01-16T15:32:50;4.10;99.90
19870;DHT22;10097;50.862;4.696;2024-01-16T15:35:15;4.00;99.90
19870;DHT22;10097;50.862;4.696;2024-01-16T15:37:41;3.80;99.90
19870;DHT22;10097;50.862;4.696;2024-01-16T15:40:08;3.80;99.90
19870;DHT22;10097;50.862;4.696;2024-01-16T15:42:34;3.80;99.90
19870;DHT22;10097;50.862;4.696;2024-01-16T15:45:05;3.70;99.90
19870;DHT22;10097;50.862;4.696;2024-01-16T15:47:32;3.60;99.90
19870;DHT22;10097;50.862;4.696;2024-01-16T15:49:58;3.60;99.90
19870;DHT22;10097;50.862;4.696;2024-01-16T15:52:24;3.50;99.90
19870;DHT22;10097;50.862;4.696;2024-01-16T15:54:49;3.50;99.90
19870;DHT22;10097;50.862;4.696;2024-01-16T15:57:16;3.30;99.90
19870;DHT22;10097;50.862;4.696;2024-01-16T15:59:41;3.30;99.90